Fife Lake, Michigan
Current Conditions -  °F | °C
As of 11:27 AM on Thursday 30 Oct 2014 (Local Time) from KTVC Reporting Station
Drizzle Drizzle  
Wind Chill: 45°   Ceiling: 2800
Heat Index: 45°   Visibility: 10mi
Dew Point: 38°   Wind: 3mph
Humidity: 76%   Direction: 220°SW
Pressure: 30.06"   Gusts: NA
Location:  44.58°N, 85.35°W
Report Text: KTVC 301527Z 22003KT 10SM -DZ BKN028 OVC036 07/03 A3006 RMK AO2 DZB26 P0000 T00720033
Loading
Personal Weather Stations






























Interactive Weather Map
Tropical Storm Tracking
New forecast layout! Learn more

10-Day Weather Forecast

Advertisements
Track Severe Weather on mobile